Time;durP1;ratioP1;P1;durP2;ratioP2;P2;SDS_P1;SDS_P2;PMS_P1;PMS_P2;Temp;Humidity;BMP_temperature;BMP_pressure;BME280_temperature;BME280_humidity;BME280_pressure;Samples;Min_cycle;Max_cycle;Signal;HPM_P1;HPM_P2
2022/02/25 00:01:05;;;;;;;1.35;1.25;;;2.10;99.60;;;;;;5069494;28;20290;-85
2022/02/25 00:03:32;;;;;;;2.53;0.75;;;2.90;99.90;;;;;;5062961;28;20286;-84
2022/02/25 00:06:00;;;;;;;1.70;0.95;;;2.60;99.90;;;;;;5069804;28;20553;-84
2022/02/25 00:08:27;;;;;;;3.15;0.95;;;;;;;;;;5068472;28;20682;-84
2022/02/25 00:10:54;;;;;;;0.70;0.70;;;;;;;;;;5069509;28;20344;-84
2022/02/25 00:13:21;;;;;;;1.45;1.02;;;2.90;99.90;;;;;;5062284;28;20215;-84
2022/02/25 00:15:48;;;;;;;0.75;0.70;;;3.20;99.90;;;;;;5068026;28;20252;-85
2022/02/25 00:18:15;;;;;;;3.10;1.23;;;;;;;;;;5068191;28;20286;-84
2022/02/25 00:20:42;;;;;;;0.80;0.73;;;2.70;99.90;;;;;;5068663;28;20264;-84
2022/02/25 00:23:11;;;;;;;1.55;0.80;;;2.60;99.60;;;;;;5068726;28;20313;-84
2022/02/25 00:25:41;;;;;;;1.65;0.82;;;2.70;99.90;;;;;;5069035;28;20268;-84
2022/02/25 00:28:08;;;;;;;0.93;0.93;;;3.60;99.90;;;;;;5068530;28;20203;-84
2022/02/25 00:30:35;;;;;;;1.73;1.08;;;2.80;99.90;;;;;;5068268;28;20203;-84
2022/02/25 00:33:02;;;;;;;1.00;1.00;;;;;;;;;;5068804;28;20215;-84
2022/02/25 00:35:29;;;;;;;0.80;0.80;;;2.80;99.90;;;;;;5049176;28;20295;-84
2022/02/25 00:37:55;;;;;;;2.00;1.33;;;2.80;99.90;;;;;;5064853;28;20203;-84
2022/02/25 00:40:24;;;;;;;0.75;0.75;;;2.70;99.90;;;;;;5067429;28;20234;-84
2022/02/25 00:42:51;;;;;;;1.23;1.20;;;2.50;99.90;;;;;;5068230;28;20225;-84
2022/02/25 00:45:19;;;;;;;0.60;0.60;;;;;;;;;;5068426;28;20549;-84
2022/02/25 00:47:45;;;;;;;1.80;0.98;;;2.60;99.90;;;;;;5067708;28;20195;-85
2022/02/25 00:50:12;;;;;;;1.83;1.02;;;2.60;99.90;;;;;;5068319;28;20245;-84
2022/02/25 00:52:39;;;;;;;1.85;0.90;;;2.60;99.90;;;;;;5068557;28;20279;-84
2022/02/25 00:55:08;;;;;;;1.00;1.00;;;2.90;99.90;;;;;;5068097;28;20199;-84
2022/02/25 00:57:36;;;;;;;3.75;1.38;;;2.60;97.60;;;;;;5067408;28;20199;-84
2022/02/25 01:00:05;;;;;;;1.08;0.98;;;2.30;99.90;;;;;;5067819;28;20317;-84
2022/02/25 01:02:31;;;;;;;2.10;1.20;;;2.30;99.90;;;;;;5051912;28;20655;-84
2022/02/25 01:05:00;;;;;;;3.13;1.35;;;2.40;99.90;;;;;;5068225;28;20650;-84
2022/02/25 01:07:27;;;;;;;3.47;1.55;;;3.10;99.70;;;;;;5065503;28;20195;-84
2022/02/25 01:09:55;;;;;;;1.95;1.55;;;;;;;;;;5049279;28;20215;-84
2022/02/25 01:12:23;;;;;;;1.55;1.45;;;2.30;98.70;;;;;;5057308;28;20282;-84
2022/02/25 01:14:52;;;;;;;2.40;1.40;;;2.30;97.50;;;;;;5067117;28;20195;-84
2022/02/25 01:17:19;;;;;;;3.28;1.00;;;2.40;99.90;;;;;;5066908;28;20719;-84
2022/02/25 01:19:46;;;;;;;1.58;1.38;;;2.20;99.90;;;;;;5067744;28;20205;-84
2022/02/25 01:22:14;;;;;;;1.27;1.17;;;2.20;99.90;;;;;;5065450;28;20223;-83
2022/02/25 01:24:42;;;;;;;1.58;1.48;;;2.10;99.90;;;;;;5067546;28;20227;-84
2022/02/25 01:27:10;;;;;;;1.00;0.88;;;1.90;99.90;;;;;;5067526;28;20253;-84
2022/02/25 01:29:38;;;;;;;5.72;1.27;;;2.00;99.90;;;;;;5066466;28;20205;-85
2022/02/25 01:32:08;;;;;;;1.58;1.48;;;2.10;97.20;;;;;;5064431;28;20199;-85
2022/02/25 01:34:35;;;;;;;3.95;1.67;;;1.90;97.30;;;;;;5067533;28;20214;-84
2022/02/25 01:37:02;;;;;;;1.70;1.60;;;1.90;99.90;;;;;;5066988;28;20596;-84
2022/02/25 01:39:31;;;;;;;1.05;1.05;;;;;;;;;;5065915;28;20207;-84
2022/02/25 01:41:58;;;;;;;2.35;0.90;;;1.60;97.70;;;;;;5053793;28;20215;-84
2022/02/25 01:44:26;;;;;;;1.40;1.30;;;1.80;99.90;;;;;;5067638;28;20227;-85
2022/02/25 01:46:56;;;;;;;1.00;1.00;;;1.80;99.90;;;;;;5066493;28;20197;-84
2022/02/25 01:49:25;;;;;;;1.50;1.40;;;1.70;99.90;;;;;;5067297;28;20223;-84
2022/02/25 01:51:54;;;;;;;1.20;1.10;;;1.70;96.30;;;;;;5067192;28;20635;-84
2022/02/25 01:54:21;;;;;;;0.80;0.80;;;1.70;96.40;;;;;;5067169;28;20227;-84
2022/02/25 01:56:48;;;;;;;3.75;1.40;;;1.70;99.90;;;;;;5066388;28;20290;-84
2022/02/25 01:59:15;;;;;;;1.23;1.05;;;1.50;99.90;;;;;;5067008;28;20191;-85
2022/02/25 02:01:42;;;;;;;1.40;1.30;;;2.10;97.60;;;;;;5067171;28;20191;-84
2022/02/25 02:04:09;;;;;;;1.20;1.10;;;1.30;97.80;;;;;;5058209;28;20699;-84
2022/02/25 02:06:38;;;;;;;2.25;1.00;;;2.00;96.00;;;;;;5066405;28;20255;-84
2022/02/25 02:09:06;;;;;;;2.08;1.80;;;1.60;96.00;;;;;;5066626;28;20278;-84
2022/02/25 02:11:36;;;;;;;1.83;1.25;;;1.50;96.10;;;;;;5066497;28;20217;-84
2022/02/25 02:14:07;;;;;;;5.22;1.45;;;1.40;99.90;;;;;;5066870;28;20717;-84
2022/02/25 02:16:35;;;;;;;1.08;1.00;;;;;;;;;;5066739;28;20199;-84
2022/02/25 02:19:02;;;;;;;7.18;1.85;;;1.70;99.90;;;;;;5067038;28;20665;-83
2022/02/25 02:21:31;;;;;;;1.35;1.25;;;1.70;96.20;;;;;;5067113;28;20746;-84
2022/02/25 02:24:01;;;;;;;1.45;1.35;;;1.40;97.40;;;;;;5066740;28;20215;-84
2022/02/25 02:26:30;;;;;;;1.60;1.30;;;1.50;95.90;;;;;;5066263;28;20199;-84
2022/02/25 02:28:58;;;;;;;1.40;1.30;;;1.60;99.90;;;;;;5066986;28;20195;-84
2022/02/25 02:31:26;;;;;;;6.65;2.05;;;2.20;99.90;;;;;;5067059;28;20247;-84
2022/02/25 02:33:54;;;;;;;2.22;1.20;;;1.90;95.80;;;;;;5066833;28;20284;-84
2022/02/25 02:36:22;;;;;;;3.00;1.73;;;1.40;98.70;;;;;;5066409;28;20712;-84
2022/02/25 02:38:49;;;;;;;3.28;1.52;;;1.40;99.90;;;;;;5065780;28;20595;-84
2022/02/25 02:41:18;;;;;;;1.50;1.40;;;2.20;97.90;;;;;;5052450;28;20657;-84
2022/02/25 02:43:46;;;;;;;1.35;1.20;;;1.50;99.40;;;;;;5066106;28;20219;-83
2022/02/25 02:46:14;;;;;;;2.67;1.17;;;1.50;95.50;;;;;;5046639;28;20300;-84
2022/02/25 02:48:42;;;;;;;3.58;2.22;;;1.30;98.60;;;;;;5064380;28;20249;-84
2022/02/25 02:51:09;;;;;;;5.05;2.00;;;1.40;99.90;;;;;;5066793;28;20214;-83
2022/02/25 02:53:36;;;;;;;4.72;0.95;;;1.80;99.90;;;;;;5066865;28;20231;-84
2022/02/25 02:56:04;;;;;;;1.67;1.55;;;1.40;99.90;;;;;;5066659;28;20227;-84
2022/02/25 02:58:33;;;;;;;3.05;1.80;;;1.50;97.30;;;;;;5059915;28;20235;-85
2022/02/25 03:01:00;;;;;;;5.38;1.45;;;;;;;;;;5065810;28;20234;-84
2022/02/25 03:03:27;;;;;;;8.85;2.25;;;1.50;99.90;;;;;;5061564;28;20290;-84
2022/02/25 03:05:54;;;;;;;4.45;1.73;;;;;;;;;;5066881;28;20291;-84
2022/02/25 03:08:21;;;;;;;2.08;1.80;;;1.30;99.90;;;;;;5065907;28;20203;-84
2022/02/25 03:10:48;;;;;;;5.65;1.98;;;1.40;96.40;;;;;;5066116;28;20282;-84
2022/02/25 03:13:16;;;;;;;4.05;1.55;;;2.00;99.90;;;;;;5066868;28;20195;-84
2022/02/25 03:15:45;;;;;;;2.45;1.70;;;1.40;96.50;;;;;;5065742;28;20203;-84
2022/02/25 03:18:13;;;;;;;3.15;1.25;;;1.40;96.40;;;;;;5066269;28;20283;-84
2022/02/25 03:20:40;;;;;;;9.88;1.30;;;0.50;96.10;;;;;;5066344;28;20249;-83
2022/02/25 03:23:07;;;;;;;2.53;0.93;;;1.30;99.90;;;;;;5067682;28;20215;-84
2022/02/25 03:25:34;;;;;;;4.55;1.60;;;1.30;99.90;;;;;;5068781;28;20584;-84
2022/02/25 03:28:01;;;;;;;1.85;1.20;;;1.20;99.90;;;;;;5068961;28;20234;-83
2022/02/25 03:30:28;;;;;;;3.70;1.58;;;;;;;;;;5069558;28;20203;-84
2022/02/25 03:32:56;;;;;;;2.90;1.45;;;1.30;99.90;;;;;;5069805;28;20268;-84
2022/02/25 03:35:23;;;;;;;2.38;1.15;;;1.30;96.30;;;;;;5069993;28;20607;-84
2022/02/25 03:37:51;;;;;;;1.27;1.00;;;1.20;99.60;;;;;;5069441;28;20199;-84
2022/02/25 03:40:18;;;;;;;3.03;1.00;;;1.40;99.90;;;;;;5067839;28;20282;-84
2022/02/25 03:42:44;;;;;;;3.40;1.92;;;1.30;99.90;;;;;;5069475;28;20306;-84
2022/02/25 03:45:13;;;;;;;2.85;1.40;;;1.30;95.80;;;;;;5069946;28;20219;-84
2022/02/25 03:47:40;;;;;;;2.78;1.30;;;1.30;99.90;;;;;;5069280;28;20256;-84
2022/02/25 03:50:09;;;;;;;2.05;1.42;;;1.40;95.90;;;;;;5069455;28;20209;-84
2022/02/25 03:52:37;;;;;;;2.10;1.08;;;;;;;;;;5066571;28;20238;-83
2022/02/25 03:55:04;;;;;;;1.13;1.02;;;1.30;99.90;;;;;;5065578;28;20615;-84
2022/02/25 03:57:31;;;;;;;4.05;1.45;;;1.30;95.70;;;;;;5068381;28;20207;-84
2022/02/25 03:59:58;;;;;;;3.15;1.50;;;1.40;99.90;;;;;;5069218;28;20195;-83
2022/02/25 04:02:25;;;;;;;1.58;1.48;;;;;;;;;;5066588;28;20254;-84
2022/02/25 04:04:52;;;;;;;1.40;0.90;;;3.30;96.80;;;;;;5064102;28;20231;-83
2022/02/25 04:07:21;;;;;;;4.75;1.55;;;1.00;97.30;;;;;;5068785;28;20286;-84
2022/02/25 04:09:48;;;;;;;2.58;1.25;;;;;;;;;;5068411;28;20691;-84
2022/02/25 04:12:15;;;;;;;1.30;1.20;;;;;;;;;;5068728;28;20203;-84
2022/02/25 04:14:42;;;;;;;3.30;1.15;;;1.30;96.90;;;;;;5069136;28;20282;-84
2022/02/25 04:17:10;;;;;;;1.98;1.25;;;;;;;;;;5068592;28;20199;-84
2022/02/25 04:19:37;;;;;;;2.10;1.23;;;1.30;99.90;;;;;;5068541;28;20256;-84
2022/02/25 04:22:04;;;;;;;4.15;0.93;;;1.50;99.90;;;;;;5069065;28;20219;-83
2022/02/25 04:24:32;;;;;;;1.00;1.00;;;1.40;99.90;;;;;;5067313;28;20258;-84
2022/02/25 04:27:00;;;;;;;3.85;0.90;;;;;;;;;;5068198;28;20735;-84
2022/02/25 04:29:27;;;;;;;5.13;1.30;;;1.80;99.90;;;;;;5069297;28;20655;-84
2022/02/25 04:31:53;;;;;;;2.67;1.70;;;1.30;99.90;;;;;;5069073;28;20256;-84
2022/02/25 04:34:21;;;;;;;1.48;1.23;;;1.30;96.00;;;;;;5067409;28;20813;-84
2022/02/25 04:36:48;;;;;;;1.15;0.82;;;1.20;96.10;;;;;;5067736;28;20199;-83
2022/02/25 04:39:15;;;;;;;1.40;1.10;;;1.20;99.90;;;;;;5048460;28;20188;-84
2022/02/25 04:41:44;;;;;;;2.03;1.30;;;1.10;96.40;;;;;;5068346;28;20202;-84
2022/02/25 04:44:11;;;;;;;3.70;1.30;;;;;;;;;;5069235;28;20219;-83
2022/02/25 04:46:40;;;;;;;2.08;1.30;;;1.30;99.90;;;;;;5068195;28;20245;-84
2022/02/25 04:49:07;;;;;;;1.83;1.20;;;1.40;95.50;;;;;;5062385;28;20227;-84
2022/02/25 04:51:34;;;;;;;1.20;1.20;;;1.40;99.90;;;;;;5068257;28;20199;-84
2022/02/25 04:54:01;;;;;;;1.02;0.90;;;0.90;95.50;;;;;;5068752;28;20221;-84
2022/02/25 04:56:28;;;;;;;4.88;1.05;;;1.60;99.90;;;;;;5068170;28;20267;-84
2022/02/25 04:58:56;;;;;;;3.92;1.35;;;1.40;99.90;;;;;;5068675;28;20683;-84
2022/02/25 05:01:24;;;;;;;3.47;1.63;;;;;;;;;;5068464;28;20258;-84
2022/02/25 05:03:51;;;;;;;5.18;1.83;;;1.30;99.90;;;;;;5068004;28;20708;-84
2022/02/25 05:06:18;;;;;;;1.73;1.20;;;1.50;99.90;;;;;;5067602;28;20251;-84
2022/02/25 05:08:45;;;;;;;6.22;1.48;;;1.30;99.90;;;;;;5068328;28;20654;-84
2022/02/25 05:11:11;;;;;;;4.82;1.23;;;1.70;99.90;;;;;;5068964;28;20203;-84
2022/02/25 05:13:38;;;;;;;2.03;1.23;;;1.60;99.90;;;;;;5068568;28;20318;-84
2022/02/25 05:21:47;;;;;;;4.03;1.60;;;;;;;;;;4961353;28;20321;-83
2022/02/25 05:24:14;;;;;;;1.77;1.45;;;1.90;96.00;;;;;;5023394;28;20297;-84
2022/02/25 05:26:41;;;;;;;1.50;1.15;;;1.70;99.90;;;;;;5067971;28;20601;-84
2022/02/25 05:29:07;;;;;;;5.95;1.65;;;1.70;99.90;;;;;;5067247;28;20275;-84
2022/02/25 05:31:36;;;;;;;1.95;1.17;;;1.70;99.90;;;;;;5067963;28;20280;-84
2022/02/25 05:34:03;;;;;;;3.80;1.40;;;1.90;99.90;;;;;;5067371;28;20296;-84
2022/02/25 05:36:30;;;;;;;2.22;1.33;;;;;;;;;;5067415;28;20282;-84
2022/02/25 05:38:57;;;;;;;1.60;0.95;;;1.90;99.90;;;;;;5067075;28;20219;-84
2022/02/25 05:41:24;;;;;;;1.80;1.45;;;1.80;99.90;;;;;;5060690;28;20195;-84
2022/02/25 05:43:51;;;;;;;2.83;1.33;;;2.00;99.90;;;;;;5067351;28;20199;-85
2022/02/25 05:46:18;;;;;;;1.20;1.10;;;2.00;99.90;;;;;;5067544;28;20276;-84
2022/02/25 05:48:46;;;;;;;4.13;1.98;;;1.90;99.90;;;;;;5067731;28;20195;-84
2022/02/25 05:51:13;;;;;;;1.90;1.70;;;2.10;99.90;;;;;;5067900;28;20199;-83
2022/02/25 05:53:40;;;;;;;4.80;2.70;;;1.80;99.90;;;;;;5067798;28;20219;-83
2022/02/25 05:56:06;;;;;;;11.35;3.97;;;1.90;99.90;;;;;;5067075;28;20207;-84
2022/02/25 05:58:34;;;;;;;4.43;4.03;;;;;;;;;;5068137;28;20276;-84
2022/02/25 06:01:01;;;;;;;11.57;7.25;;;;;;;;;;5067581;28;20278;-83
2022/02/25 06:03:28;;;;;;;43.45;22.45;;;2.70;99.90;;;;;;5064890;28;20199;-84
2022/02/25 06:05:56;;;;;;;38.83;23.67;;;1.90;99.90;;;;;;5067416;28;20251;-83
2022/02/25 06:08:23;;;;;;;54.92;33.50;;;;;;;;;;5067228;28;20607;-84
2022/02/25 06:10:50;;;;;;;37.55;25.02;;;2.10;99.90;;;;;;5066868;28;20203;-84
2022/02/25 06:13:17;;;;;;;34.95;21.88;;;1.70;99.90;;;;;;5057779;28;20235;-84
2022/02/25 06:15:45;;;;;;;34.92;20.50;;;1.70;99.90;;;;;;5067277;28;20260;-85
2022/02/25 06:18:13;;;;;;;35.50;21.27;;;1.70;99.90;;;;;;5059026;28;20221;-84
2022/02/25 06:20:40;;;;;;;33.38;18.75;;;1.70;99.90;;;;;;5062937;28;20214;-84
2022/02/25 06:23:09;;;;;;;14.57;9.88;;;1.60;99.90;;;;;;5047361;28;20554;-84
2022/02/25 06:25:36;;;;;;;10.80;8.18;;;1.50;99.90;;;;;;5065053;28;20226;-84
2022/02/25 06:28:03;;;;;;;13.48;8.80;;;1.60;99.90;;;;;;5068008;28;21008;-84
2022/02/25 06:30:30;;;;;;;10.50;5.35;;;1.60;99.90;;;;;;5068162;28;20226;-84
2022/02/25 06:32:57;;;;;;;5.85;4.50;;;1.50;99.90;;;;;;5067710;28;20203;-84
2022/02/25 06:35:28;;;;;;;10.07;3.17;;;1.50;99.90;;;;;;5067856;28;20288;-84
2022/02/25 06:37:55;;;;;;;1.90;1.70;;;1.40;99.90;;;;;;5066660;28;20207;-85
2022/02/25 06:40:24;;;;;;;5.82;1.90;;;1.40;98.40;;;;;;5067347;28;20222;-84
2022/02/25 06:42:51;;;;;;;5.80;1.85;;;1.40;99.90;;;;;;5068557;28;20187;-84
2022/02/25 06:45:19;;;;;;;2.10;1.90;;;1.90;99.90;;;;;;5053584;28;20249;-84
2022/02/25 06:47:48;;;;;;;5.95;1.45;;;1.60;96.90;;;;;;5053021;28;20309;-84
2022/02/25 06:50:17;;;;;;;1.65;1.55;;;1.20;99.90;;;;;;5066711;28;20194;-84
2022/02/25 06:52:44;;;;;;;4.35;2.20;;;2.10;99.90;;;;;;5047056;28;20223;-84
2022/02/25 06:55:13;;;;;;;4.85;2.17;;;1.60;99.90;;;;;;5058866;28;20259;-83
2022/02/25 06:57:42;;;;;;;4.20;2.03;;;1.70;99.90;;;;;;5051951;28;20597;-84
2022/02/25 07:00:11;;;;;;;4.00;2.05;;;2.00;99.90;;;;;;5070987;28;20241;-84
2022/02/25 07:02:37;;;;;;;13.20;2.95;;;1.90;99.90;;;;;;5071277;28;20543;-84
2022/02/25 07:05:05;;;;;;;2.88;1.90;;;1.90;99.90;;;;;;5068412;28;20257;-84
2022/02/25 07:07:32;;;;;;;4.70;2.20;;;1.90;99.90;;;;;;5071104;28;20253;-84
2022/02/25 07:09:59;;;;;;;8.32;2.38;;;2.10;96.80;;;;;;5068418;28;20227;-83
2022/02/25 07:12:27;;;;;;;4.32;2.75;;;1.90;99.90;;;;;;5070701;28;20248;-83
2022/02/25 07:14:55;;;;;;;5.10;2.42;;;2.00;99.90;;;;;;5069759;28;20257;-83
2022/02/25 07:17:22;;;;;;;8.02;2.58;;;2.90;99.90;;;;;;5068404;28;20756;-83
2022/02/25 07:19:49;;;;;;;3.33;1.92;;;2.70;99.90;;;;;;5064133;28;20269;-83
2022/02/25 07:22:16;;;;;;;3.35;1.38;;;2.30;99.90;;;;;;5069865;28;20200;-83
2022/02/25 07:24:43;;;;;;;2.53;1.60;;;2.10;95.90;;;;;;5063346;28;20203;-84
2022/02/25 07:27:10;;;;;;;1.85;1.70;;;2.30;99.90;;;;;;5053045;28;20537;-83
2022/02/25 07:29:37;;;;;;;2.88;2.20;;;2.50;99.90;;;;;;5060177;28;20202;-83
2022/02/25 07:32:06;;;;;;;3.67;1.92;;;2.50;99.90;;;;;;5070813;28;20195;-84
2022/02/25 07:34:33;;;;;;;9.93;1.50;;;2.60;99.90;;;;;;5069887;28;20696;-83
2022/02/25 07:37:00;;;;;;;2.95;1.50;;;2.50;99.90;;;;;;5069821;28;20229;-83
2022/02/25 07:39:27;;;;;;;1.58;1.27;;;2.70;99.90;;;;;;5070565;28;20302;-83
2022/02/25 07:41:53;;;;;;;5.03;1.52;;;3.30;99.90;;;;;;5069798;28;20249;-84
2022/02/25 07:44:22;;;;;;;2.20;1.85;;;2.80;99.90;;;;;;5069966;28;20643;-84
2022/02/25 07:46:49;;;;;;;13.68;2.30;;;2.80;99.90;;;;;;5068389;28;20280;-83
2022/02/25 07:49:18;;;;;;;2.90;1.60;;;2.80;99.90;;;;;;5070574;28;20203;-83
2022/02/25 07:51:50;;;;;;;1.92;1.42;;;2.90;99.90;;;;;;5069666;28;20654;-84
2022/02/25 07:54:17;;;;;;;1.55;1.35;;;;;;;;;;5070455;28;20203;-83
2022/02/25 07:56:44;;;;;;;6.45;1.60;;;3.20;99.90;;;;;;5069156;28;20333;-83
2022/02/25 07:59:12;;;;;;;2.83;1.25;;;3.00;99.90;;;;;;5069799;28;20250;-83
2022/02/25 08:01:39;;;;;;;3.83;1.55;;;3.10;99.90;;;;;;5067508;28;20523;-83
2022/02/25 08:04:06;;;;;;;2.25;1.15;;;3.20;99.80;;;;;;5067027;28;20550;-83
2022/02/25 08:06:36;;;;;;;2.88;1.73;;;3.20;99.90;;;;;;5069181;28;20234;-83
2022/02/25 08:09:03;;;;;;;2.75;1.38;;;3.20;99.90;;;;;;5047417;28;20718;-83
2022/02/25 08:11:30;;;;;;;3.72;1.42;;;3.20;98.80;;;;;;5064946;28;20348;-83
2022/02/25 08:13:57;;;;;;;3.22;1.48;;;3.40;98.50;;;;;;5069793;28;20912;-83
2022/02/25 08:16:27;;;;;;;1.55;1.42;;;3.50;98.30;;;;;;5069076;28;20746;-83
2022/02/25 08:18:54;;;;;;;2.58;1.10;;;3.50;99.90;;;;;;5068599;28;20249;-83
2022/02/25 08:21:21;;;;;;;8.30;1.50;;;4.00;92.70;;;;;;5067865;28;20195;-83
2022/02/25 08:23:55;;;;;;;2.13;1.35;;;1.00;99.70;;;;;;5068595;28;20229;-83
2022/02/25 08:26:22;;;;;;;2.72;1.67;;;3.50;99.40;;;;;;5052338;28;20595;-83
2022/02/25 08:28:49;;;;;;;1.45;1.10;;;3.80;92.70;;;;;;5063101;28;20195;-83
2022/02/25 08:31:16;;;;;;;3.85;1.23;;;;;;;;;;5069515;28;20261;-82
2022/02/25 08:33:43;;;;;;;3.28;1.50;;;;;;;;;;5069171;28;20213;-83
2022/02/25 08:36:13;;;;;;;2.05;1.85;;;3.80;98.20;;;;;;5068569;28;20735;-83
2022/02/25 08:38:40;;;;;;;8.57;1.50;;;3.60;99.90;;;;;;5066789;28;20284;-83
2022/02/25 08:41:11;;;;;;;3.65;1.33;;;3.80;97.10;;;;;;5062221;28;20286;-83
2022/02/25 08:43:38;;;;;;;3.45;1.23;;;3.90;97.40;;;;;;5061030;28;20199;-83
2022/02/25 08:46:05;;;;;;;1.13;1.00;;;4.00;99.90;;;;;;5059512;28;20313;-83
2022/02/25 08:48:35;;;;;;;8.10;1.65;;;4.10;97.10;;;;;;5057829;28;20203;-82
2022/02/25 08:51:02;;;;;;;3.38;1.85;;;4.00;95.40;;;;;;5057116;28;20192;-83
2022/02/25 08:53:32;;;;;;;4.57;2.10;;;4.20;97.40;;;;;;5057784;28;20605;-82
2022/02/25 08:55:59;;;;;;;7.47;1.83;;;;;;;;;;5057473;28;20208;-84
2022/02/25 08:58:28;;;;;;;3.97;1.60;;;4.20;89.30;;;;;;5051793;28;20188;-83
2022/02/25 09:00:55;;;;;;;8.00;1.60;;;4.10;99.90;;;;;;5064569;28;20280;-84
2022/02/25 09:03:25;;;;;;;2.90;1.35;;;4.20;99.90;;;;;;5058351;28;20195;-82
2022/02/25 09:05:52;;;;;;;3.33;1.45;;;;;;;;;;5058451;28;20307;-82
2022/02/25 09:08:19;;;;;;;4.05;1.48;;;4.50;96.20;;;;;;5068311;28;20211;-84
2022/02/25 09:10:49;;;;;;;3.20;1.80;;;4.40;88.30;;;;;;5068471;28;20268;-82
2022/02/25 09:13:16;;;;;;;6.75;1.50;;;;;;;;;;5050516;28;20233;-84
2022/02/25 09:15:45;;;;;;;8.20;2.22;;;4.50;99.40;;;;;;5067672;28;20211;-83
2022/02/25 09:18:12;;;;;;;5.43;1.40;;;4.20;95.20;;;;;;5066559;28;20621;-83
2022/02/25 09:20:40;;;;;;;7.43;1.40;;;4.60;97.80;;;;;;5067689;28;20710;-83
2022/02/25 09:23:07;;;;;;;10.27;2.40;;;4.70;95.20;;;;;;5068464;28;20203;-83
2022/02/25 09:25:34;;;;;;;4.75;1.80;;;;;;;;;;5068160;28;20306;-83
2022/02/25 09:28:01;;;;;;;5.97;1.85;;;5.10;94.60;;;;;;5068901;28;20293;-83
2022/02/25 09:30:29;;;;;;;4.97;1.40;;;;;;;;;;5067824;28;20203;-84
2022/02/25 09:32:58;;;;;;;7.82;1.25;;;4.60;93.30;;;;;;5066532;28;20290;-83
2022/02/25 09:35:25;;;;;;;2.60;1.45;;;4.80;93.80;;;;;;5068511;28;20214;-83
2022/02/25 09:37:53;;;;;;;4.88;1.70;;;5.40;93.50;;;;;;5066227;28;20200;-83
2022/02/25 09:40:21;;;;;;;5.68;1.45;;;4.90;96.80;;;;;;5067864;28;20290;-83
2022/02/25 09:42:49;;;;;;;4.63;1.33;;;4.80;92.20;;;;;;5068749;28;20206;-83
2022/02/25 09:45:18;;;;;;;4.18;0.95;;;5.20;93.00;;;;;;5067805;28;20200;-83
2022/02/25 09:47:45;;;;;;;2.22;1.25;;;5.10;92.30;;;;;;5067013;28;20779;-83
2022/02/25 09:50:16;;;;;;;2.55;1.40;;;5.10;91.90;;;;;;5067987;28;20215;-83
2022/02/25 09:52:44;;;;;;;5.60;1.58;;;5.00;93.90;;;;;;5060999;28;20250;-83
2022/02/25 09:55:20;;;;;;;7.78;2.28;;;6.40;92.90;;;;;;5061345;28;20269;-83
2022/02/25 09:57:48;;;;;;;3.33;1.20;;;5.20;95.90;;;;;;5067099;28;20291;-83
2022/02/25 10:00:16;;;;;;;1.73;1.30;;;5.00;92.30;;;;;;5067392;28;20284;-83
2022/02/25 10:02:44;;;;;;;1.50;1.35;;;5.00;91.80;;;;;;5053421;28;20203;-83
2022/02/25 10:05:15;;;;;;;1.88;1.10;;;5.00;95.30;;;;;;5067558;28;20730;-84
2022/02/25 10:07:46;;;;;;;0.70;0.70;;;;;;;;;;5067407;28;20292;-84
2022/02/25 10:10:15;;;;;;;1.80;1.13;;;5.50;79.70;;;;;;5067631;28;20541;-83
2022/02/25 10:12:49;;;;;;;5.60;2.20;;;5.50;78.10;;;;;;5067918;28;20325;-84
2022/02/25 10:15:29;;;;;;;1.83;0.90;;;5.50;78.90;;;;;;5066961;28;20599;-84
2022/02/25 10:18:01;;;;;;;4.13;1.27;;;5.60;79.10;;;;;;5067130;28;20575;-83
2022/02/25 10:20:30;;;;;;;1.20;1.00;;;;;;;;;;5067591;28;20311;-83
2022/02/25 10:22:58;;;;;;;1.67;0.82;;;5.40;88.30;;;;;;5065806;28;20537;-83
2022/02/25 10:25:31;;;;;;;5.65;1.45;;;5.70;77.50;;;;;;5067051;28;20195;-84
2022/02/25 10:27:58;;;;;;;1.63;0.90;;;6.00;91.20;;;;;;5067766;28;20330;-85
2022/02/25 10:30:28;;;;;;;9.32;1.98;;;6.20;93.90;;;;;;5068372;28;20214;-84
2022/02/25 10:32:57;;;;;;;6.18;1.38;;;5.80;88.90;;;;;;5068829;28;20211;-85
2022/02/25 10:35:30;;;;;;;1.10;0.98;;;6.00;76.30;;;;;;5071304;28;20756;-85
2022/02/25 10:38:00;;;;;;;5.32;1.40;;;6.00;75.30;;;;;;5072183;28;20214;-85
2022/02/25 10:40:29;;;;;;;3.00;1.25;;;6.10;77.30;;;;;;5071479;28;20214;-84
2022/02/25 10:42:56;;;;;;;6.47;1.35;;;6.50;93.60;;;;;;5072290;28;20238;-85
2022/02/25 10:45:32;;;;;;;3.55;1.63;;;6.00;92.80;;;;;;5071652;28;20287;-84
2022/02/25 10:48:04;;;;;;;1.50;1.20;;;6.00;90.70;;;;;;5063720;28;20660;-84
2022/02/25 10:50:46;;;;;;;4.57;1.02;;;6.00;93.00;;;;;;5072126;28;20639;-84
2022/02/25 10:53:14;;;;;;;6.07;1.75;;;6.60;91.10;;;;;;5072645;28;20207;-85
2022/02/25 10:55:41;;;;;;;4.57;1.67;;;5.90;92.40;;;;;;5070705;28;20195;-84
2022/02/25 10:58:08;;;;;;;1.77;0.95;;;5.90;91.90;;;;;;5072042;28;20265;-84
2022/02/25 11:00:35;;;;;;;5.45;1.65;;;6.30;91.30;;;;;;5071814;28;20560;-85
2022/02/25 11:03:02;;;;;;;4.15;1.35;;;6.10;73.80;;;;;;5067760;28;20800;-85
2022/02/25 11:05:30;;;;;;;2.72;1.50;;;6.10;91.50;;;;;;5071325;28;20223;-85
2022/02/25 11:08:01;;;;;;;2.70;1.10;;;6.20;74.80;;;;;;5070755;28;20223;-86
2022/02/25 11:10:30;;;;;;;3.42;1.15;;;6.40;92.40;;;;;;5071068;28;20191;-84
2022/02/25 11:13:04;;;;;;;3.15;1.05;;;;;;;;;;5069295;28;20199;-84
2022/02/25 11:15:36;;;;;;;3.05;1.02;;;6.30;71.60;;;;;;5071281;28;20202;-84
2022/02/25 11:18:05;;;;;;;1.20;0.95;;;6.20;71.40;;;;;;5070394;28;20210;-85
2022/02/25 11:20:34;;;;;;;5.18;1.17;;;6.10;83.90;;;;;;5071285;28;20205;-86
2022/02/25 11:23:04;;;;;;;8.82;1.17;;;5.60;89.50;;;;;;5071197;28;20734;-85
2022/02/25 11:25:39;;;;;;;3.90;1.10;;;6.00;70.70;;;;;;5070039;28;20203;-86
2022/02/25 11:28:06;;;;;;;2.05;1.30;;;5.90;89.50;;;;;;5069790;28;20253;-86
2022/02/25 11:30:39;;;;;;;4.35;1.63;;;7.40;82.50;;;;;;5069876;28;20197;-84
2022/02/25 11:33:10;;;;;;;1.75;1.10;;;6.30;90.40;;;;;;5071915;28;20215;-85
2022/02/25 11:35:47;;;;;;;5.75;1.75;;;5.80;77.70;;;;;;5070680;28;20207;-85
2022/02/25 11:38:16;;;;;;;6.03;1.70;;;5.90;81.90;;;;;;5051591;28;20273;-84
2022/02/25 11:41:01;;;;;;;2.40;0.70;;;6.00;90.10;;;;;;5067985;28;20378;-85
2022/02/25 11:43:51;;;;;;;6.10;2.17;;;6.60;89.50;;;;;;5064442;28;20229;-84
2022/02/25 11:46:23;;;;;;;3.10;0.98;;;6.20;70.70;;;;;;5070161;28;20204;-86
2022/02/25 11:48:52;;;;;;;1.50;1.30;;;6.20;90.00;;;;;;5071801;28;20206;-85
2022/02/25 11:51:26;;;;;;;5.07;1.02;;;6.10;87.40;;;;;;5069683;28;20280;-86
2022/02/25 11:54:26;;;;;;;1.67;0.90;;;6.60;80.80;;;;;;5070149;28;20197;-84
2022/02/25 11:57:28;;;;;;;3.70;1.52;;;5.90;87.20;;;;;;5065329;28;20217;-85
2022/02/25 12:00:18;;;;;;;6.38;1.08;;;5.90;69.20;;;;;;5015495;28;20221;-85
2022/02/25 12:03:21;;;;;;;6.35;1.35;;;5.70;87.90;;;;;;5055965;28;20200;-84
2022/02/25 12:05:51;;;;;;;6.75;1.33;;;;;;;;;;5068861;28;20233;-86
2022/02/25 12:08:27;;;;;;;2.85;1.40;;;6.10;68.80;;;;;;5070248;28;20227;-86
2022/02/25 12:11:00;;;;;;;3.15;2.15;;;6.00;70.20;;;;;;5070360;28;20207;-85
2022/02/25 12:13:29;;;;;;;2.58;1.35;;;6.60;91.20;;;;;;5068614;28;20264;-85
2022/02/25 12:15:56;;;;;;;6.25;1.10;;;6.70;90.20;;;;;;5070454;28;20233;-85
2022/02/25 12:18:38;;;;;;;1.52;0.60;;;6.90;89.00;;;;;;5069081;28;20210;-84
2022/02/25 12:21:10;;;;;;;1.90;1.10;;;6.90;71.10;;;;;;5069822;28;20563;-85
2022/02/25 12:23:43;;;;;;;6.97;1.00;;;6.80;81.00;;;;;;5068851;28;20207;-84
2022/02/25 12:26:11;;;;;;;3.10;1.45;;;6.90;69.00;;;;;;5065512;28;20268;-83
2022/02/25 12:28:54;;;;;;;3.00;1.08;;;6.80;67.20;;;;;;5068764;28;20246;-84
2022/02/25 12:31:26;;;;;;;3.50;1.35;;;7.00;68.70;;;;;;5066132;28;20191;-86
2022/02/25 12:34:03;;;;;;;5.07;1.42;;;6.30;72.60;;;;;;5067075;28;20207;-85
2022/02/25 12:36:39;;;;;;;4.65;1.75;;;6.50;66.90;;;;;;5053123;28;20191;-86
2022/02/25 12:39:08;;;;;;;5.43;2.00;;;6.30;66.50;;;;;;5067582;28;20210;-85
2022/02/25 12:41:38;;;;;;;1.92;1.75;;;6.30;68.50;;;;;;5066296;28;20237;-86
2022/02/25 12:44:07;;;;;;;2.90;1.40;;;6.60;79.60;;;;;;5067393;28;20235;-85
2022/02/25 12:46:37;;;;;;;5.55;1.05;;;6.80;76.00;;;;;;5067693;28;20263;-86
2022/02/25 12:49:05;;;;;;;3.22;1.23;;;6.90;70.30;;;;;;5069236;28;20246;-85
2022/02/25 12:51:32;;;;;;;2.55;1.00;;;6.90;69.10;;;;;;5068928;28;20207;-86
2022/02/25 12:54:01;;;;;;;4.43;1.30;;;7.00;68.10;;;;;;5068435;28;20191;-85
2022/02/25 12:56:32;;;;;;;4.80;1.25;;;6.90;68.60;;;;;;5067854;28;20180;-86
2022/02/25 12:59:02;;;;;;;2.10;1.30;;;6.90;83.80;;;;;;5068311;28;20698;-86
2022/02/25 13:01:31;;;;;;;4.53;1.00;;;6.80;69.20;;;;;;5068987;28;20330;-86
2022/02/25 13:03:59;;;;;;;3.42;1.00;;;6.70;69.50;;;;;;5066156;28;20256;-85
2022/02/25 13:06:30;;;;;;;2.25;0.90;;;6.40;69.70;;;;;;5068735;28;20898;-86
2022/02/25 13:08:59;;;;;;;2.90;1.50;;;5.90;75.30;;;;;;5068324;28;20203;-86
2022/02/25 13:11:26;;;;;;;2.38;1.20;;;6.10;69.60;;;;;;5052605;28;20261;-86
2022/02/25 13:13:57;;;;;;;4.68;1.67;;;6.50;91.60;;;;;;5068264;28;20276;-87
2022/02/25 13:16:25;;;;;;;11.45;2.00;;;;;;;;;;5068493;28;20192;-86
2022/02/25 13:18:53;;;;;;;5.50;1.65;;;6.40;68.90;;;;;;5068708;28;20219;-86
2022/02/25 13:21:20;;;;;;;3.83;1.95;;;6.60;70.70;;;;;;5068185;28;20199;-87